sensor_id;sensor_type;location;lat;lon;timestamp;pressure;altitude;pressure_sealevel;temperature;humidity
37291;BME280;23175;-33.706;151.094;2023-11-21T00:01:23;100118.63;;;18.74;50.46
37291;BME280;23175;-33.706;151.094;2023-11-21T00:03:53;100115.38;;;20.62;48.47
37291;BME280;23175;-33.706;151.094;2023-11-21T00:06:23;100115.54;;;20.16;48.83
37291;BME280;23175;-33.706;151.094;2023-11-21T00:08:52;100112.08;;;17.15;53.64
37291;BME280;23175;-33.706;151.094;2023-11-21T00:11:23;100113.66;;;19.02;51.15
37291;BME280;23175;-33.706;151.094;2023-11-21T00:13:53;100117.92;;;18.24;53.49
37291;BME280;23175;-33.706;151.094;2023-11-21T00:16:24;100114.87;;;17.51;54.66
37291;BME280;23175;-33.706;151.094;2023-11-21T00:18:54;100114.98;;;18.77;52.47
37291;BME280;23175;-33.706;151.094;2023-11-21T00:21:24;100108.59;;;18.76;52.90
37291;BME280;23175;-33.706;151.094;2023-11-21T00:23:54;100106.84;;;18.51;54.18
37291;BME280;23175;-33.706;151.094;2023-11-21T00:26:25;100108.54;;;17.25;57.33
37291;BME280;23175;-33.706;151.094;2023-11-21T00:28:55;100105.28;;;17.40;56.90
37291;BME280;23175;-33.706;151.094;2023-11-21T00:31:25;100100.56;;;17.60;56.89
37291;BME280;23175;-33.706;151.094;2023-11-21T00:33:56;100097.38;;;17.88;56.12
37291;BME280;23175;-33.706;151.094;2023-11-21T00:36:26;100098.22;;;17.31;58.56
37291;BME280;23175;-33.706;151.094;2023-11-21T00:38:57;100102.22;;;14.89;62.66
37291;BME280;23175;-33.706;151.094;2023-11-21T00:41:27;100098.64;;;17.12;59.51
37291;BME280;23175;-33.706;151.094;2023-11-21T00:43:56;100098.14;;;18.07;57.70
37291;BME280;23175;-33.706;151.094;2023-11-21T00:46:26;100096.23;;;18.66;56.50
37291;BME280;23175;-33.706;151.094;2023-11-21T00:48:56;100096.54;;;18.54;56.46
37291;BME280;23175;-33.706;151.094;2023-11-21T00:51:26;100090.43;;;16.45;59.63
37291;BME280;23175;-33.706;151.094;2023-11-21T00:53:57;100089.01;;;17.20;58.49
37291;BME280;23175;-33.706;151.094;2023-11-21T00:56:27;100089.49;;;17.86;56.43
37291;BME280;23175;-33.706;151.094;2023-11-21T00:58:57;100084.18;;;17.92;57.54
37291;BME280;23175;-33.706;151.094;2023-11-21T01:01:27;100087.31;;;20.57;51.65
37291;BME280;23175;-33.706;151.094;2023-11-21T01:03:57;100083.17;;;17.51;57.03
37291;BME280;23175;-33.706;151.094;2023-11-21T01:06:27;100084.52;;;17.71;56.18
37291;BME280;23175;-33.706;151.094;2023-11-21T01:08:57;100082.25;;;18.35;55.16
37291;BME280;23175;-33.706;151.094;2023-11-21T01:11:27;100080.91;;;15.96;59.56
37291;BME280;23175;-33.706;151.094;2023-11-21T01:13:58;100077.77;;;17.85;57.75
37291;BME280;23175;-33.706;151.094;2023-11-21T01:16:28;100077.59;;;17.70;56.90
37291;BME280;23175;-33.706;151.094;2023-11-21T01:18:58;100076.36;;;19.35;55.04
37291;BME280;23175;-33.706;151.094;2023-11-21T01:21:28;100072.03;;;16.57;59.60
37291;BME280;23175;-33.706;151.094;2023-11-21T01:23:59;100067.74;;;16.90;59.70
37291;BME280;23175;-33.706;151.094;2023-11-21T01:26:29;100072.92;;;16.11;61.38
37291;BME280;23175;-33.706;151.094;2023-11-21T01:28:59;100069.26;;;16.48;61.29
37291;BME280;23175;-33.706;151.094;2023-11-21T01:31:30;100068.93;;;18.80;56.35
37291;BME280;23175;-33.706;151.094;2023-11-21T01:34:01;100068.43;;;18.37;56.59
37291;BME280;23175;-33.706;151.094;2023-11-21T01:36:33;100064.06;;;17.52;57.35
37291;BME280;23175;-33.706;151.094;2023-11-21T01:39:03;100061.13;;;16.49;59.08
37291;BME280;23175;-33.706;151.094;2023-11-21T01:41:33;100062.47;;;16.08;60.62
37291;BME280;23175;-33.706;151.094;2023-11-21T01:44:04;100061.56;;;17.97;57.81
37291;BME280;23175;-33.706;151.094;2023-11-21T01:46:34;100054.24;;;18.14;56.82
37291;BME280;23175;-33.706;151.094;2023-11-21T01:49:05;100054.06;;;19.26;54.09
37291;BME280;23175;-33.706;151.094;2023-11-21T01:51:35;100048.95;;;16.31;58.75
37291;BME280;23175;-33.706;151.094;2023-11-21T01:54:05;100049.86;;;17.73;55.76
37291;BME280;23175;-33.706;151.094;2023-11-21T01:56:36;100052.16;;;16.10;59.77
37291;BME280;23175;-33.706;151.094;2023-11-21T01:59:05;100049.43;;;20.39;52.40
37291;BME280;23175;-33.706;151.094;2023-11-21T02:01:36;100050.01;;;17.96;57.49
37291;BME280;23175;-33.706;151.094;2023-11-21T02:04:06;100047.27;;;18.08;56.02
37291;BME280;23175;-33.706;151.094;2023-11-21T02:06:36;100045.10;;;17.83;57.24
37291;BME280;23175;-33.706;151.094;2023-11-21T02:09:07;100041.41;;;17.82;57.21
37291;BME280;23175;-33.706;151.094;2023-11-21T02:11:37;100044.45;;;19.16;53.95
37291;BME280;23175;-33.706;151.094;2023-11-21T02:14:07;100042.53;;;18.12;55.51
37291;BME280;23175;-33.706;151.094;2023-11-21T02:16:38;100048.58;;;19.89;52.25
37291;BME280;23175;-33.706;151.094;2023-11-21T02:19:09;100043.13;;;19.36;52.43
37291;BME280;23175;-33.706;151.094;2023-11-21T02:21:40;100045.82;;;17.25;57.16
37291;BME280;23175;-33.706;151.094;2023-11-21T02:24:11;100042.65;;;16.67;58.18
37291;BME280;23175;-33.706;151.094;2023-11-21T02:26:41;100042.43;;;18.67;54.47
37291;BME280;23175;-33.706;151.094;2023-11-21T02:29:12;100045.60;;;18.29;56.93
37291;BME280;23175;-33.706;151.094;2023-11-21T02:31:42;100044.92;;;20.01;52.52
37291;BME280;23175;-33.706;151.094;2023-11-21T02:34:13;100043.38;;;21.38;49.67
37291;BME280;23175;-33.706;151.094;2023-11-21T02:36:43;100045.85;;;18.79;53.45
37291;BME280;23175;-33.706;151.094;2023-11-21T02:39:13;100045.65;;;19.08;53.61
37291;BME280;23175;-33.706;151.094;2023-11-21T02:41:45;100043.65;;;18.94;54.01
37291;BME280;23175;-33.706;151.094;2023-11-21T02:44:15;100039.95;;;20.23;53.41
37291;BME280;23175;-33.706;151.094;2023-11-21T02:46:45;100033.86;;;16.93;58.88
37291;BME280;23175;-33.706;151.094;2023-11-21T02:49:14;100033.05;;;19.06;55.54
37291;BME280;23175;-33.706;151.094;2023-11-21T02:51:45;100039.00;;;17.81;56.55
37291;BME280;23175;-33.706;151.094;2023-11-21T02:54:15;100043.12;;;17.82;56.83
37291;BME280;23175;-33.706;151.094;2023-11-21T02:56:45;100041.36;;;18.30;55.36
37291;BME280;23175;-33.706;151.094;2023-11-21T02:59:17;100035.54;;;20.21;53.45
37291;BME280;23175;-33.706;151.094;2023-11-21T03:01:47;100031.11;;;19.61;54.02
37291;BME280;23175;-33.706;151.094;2023-11-21T03:04:17;100028.08;;;18.00;56.47
37291;BME280;23175;-33.706;151.094;2023-11-21T03:06:47;100026.21;;;17.65;57.49
37291;BME280;23175;-33.706;151.094;2023-11-21T03:09:18;100027.82;;;18.40;55.77
37291;BME280;23175;-33.706;151.094;2023-11-21T03:11:48;100024.03;;;18.64;55.52
37291;BME280;23175;-33.706;151.094;2023-11-21T03:14:18;100018.70;;;19.31;54.25
37291;BME280;23175;-33.706;151.094;2023-11-21T03:16:49;100012.65;;;21.10;50.97
37291;BME280;23175;-33.706;151.094;2023-11-21T03:19:19;100005.90;;;20.59;51.14
37291;BME280;23175;-33.706;151.094;2023-11-21T03:21:49;100007.79;;;17.28;56.91
37291;BME280;23175;-33.706;151.094;2023-11-21T03:24:18;100000.83;;;20.52;52.52
37291;BME280;23175;-33.706;151.094;2023-11-21T03:26:49;99998.23;;;19.21;53.37
37291;BME280;23175;-33.706;151.094;2023-11-21T03:29:19;99997.10;;;20.84;49.83
37291;BME280;23175;-33.706;151.094;2023-11-21T03:31:49;99996.80;;;19.50;52.51
37291;BME280;23175;-33.706;151.094;2023-11-21T03:34:24;99997.03;;;18.40;54.82
37291;BME280;23175;-33.706;151.094;2023-11-21T03:36:55;99994.41;;;18.80;53.44
37291;BME280;23175;-33.706;151.094;2023-11-21T03:39:25;99991.52;;;17.49;54.00
37291;BME280;23175;-33.706;151.094;2023-11-21T03:41:56;99983.46;;;19.42;49.79
37291;BME280;23175;-33.706;151.094;2023-11-21T03:44:26;99983.52;;;18.61;52.01
37291;BME280;23175;-33.706;151.094;2023-11-21T03:46:56;99974.63;;;21.22;47.63
37291;BME280;23175;-33.706;151.094;2023-11-21T03:49:26;99970.02;;;22.09;45.98
37291;BME280;23175;-33.706;151.094;2023-11-21T03:51:57;99967.12;;;20.07;49.31
37291;BME280;23175;-33.706;151.094;2023-11-21T03:54:27;99966.32;;;19.88;49.24
37291;BME280;23175;-33.706;151.094;2023-11-21T03:56:57;99960.23;;;22.48;45.21
37291;BME280;23175;-33.706;151.094;2023-11-21T03:59:29;99955.05;;;20.94;47.99
37291;BME280;23175;-33.706;151.094;2023-11-21T04:01:59;99940.77;;;21.62;47.33
37291;BME280;23175;-33.706;151.094;2023-11-21T04:04:29;99931.14;;;22.12;45.84
37291;BME280;23175;-33.706;151.094;2023-11-21T04:06:59;99934.83;;;20.58;47.46
37291;BME280;23175;-33.706;151.094;2023-11-21T04:09:29;99931.18;;;20.83;45.43
37291;BME280;23175;-33.706;151.094;2023-11-21T04:12:00;99931.36;;;21.01;46.41
37291;BME280;23175;-33.706;151.094;2023-11-21T04:14:30;99924.92;;;21.00;45.39
37291;BME280;23175;-33.706;151.094;2023-11-21T04:17:00;99922.98;;;21.78;44.73
37291;BME280;23175;-33.706;151.094;2023-11-21T04:19:30;99921.47;;;20.19;47.38
37291;BME280;23175;-33.706;151.094;2023-11-21T04:22:01;99916.13;;;19.14;49.81
37291;BME280;23175;-33.706;151.094;2023-11-21T04:24:31;99914.91;;;19.93;49.13
37291;BME280;23175;-33.706;151.094;2023-11-21T04:27:01;99909.59;;;20.69;47.36
37291;BME280;23175;-33.706;151.094;2023-11-21T04:29:31;99902.97;;;20.69;46.28
37291;BME280;23175;-33.706;151.094;2023-11-21T04:32:02;99904.69;;;21.02;44.34
37291;BME280;23175;-33.706;151.094;2023-11-21T04:34:32;99899.23;;;20.15;44.56
37291;BME280;23175;-33.706;151.094;2023-11-21T04:37:02;99895.41;;;20.83;44.08
37291;BME280;23175;-33.706;151.094;2023-11-21T04:39:32;99887.97;;;22.49;42.31
37291;BME280;23175;-33.706;151.094;2023-11-21T04:42:03;99884.83;;;20.55;45.76
37291;BME280;23175;-33.706;151.094;2023-11-21T04:44:33;99889.67;;;19.84;46.94
37291;BME280;23175;-33.706;151.094;2023-11-21T04:47:03;99886.12;;;20.81;45.01
37291;BME280;23175;-33.706;151.094;2023-11-21T04:49:33;99889.30;;;20.09;46.80
37291;BME280;23175;-33.706;151.094;2023-11-21T04:52:04;99882.64;;;21.01;44.20
37291;BME280;23175;-33.706;151.094;2023-11-21T04:54:34;99879.44;;;21.09;43.53
37291;BME280;23175;-33.706;151.094;2023-11-21T04:57:04;99880.75;;;21.33;44.75
37291;BME280;23175;-33.706;151.094;2023-11-21T04:59:35;99880.55;;;20.75;45.02
37291;BME280;23175;-33.706;151.094;2023-11-21T05:02:05;99879.95;;;21.00;45.41
37291;BME280;23175;-33.706;151.094;2023-11-21T05:04:35;99883.28;;;20.89;45.83
37291;BME280;23175;-33.706;151.094;2023-11-21T05:07:05;99878.98;;;20.05;46.23
37291;BME280;23175;-33.706;151.094;2023-11-21T05:09:35;99876.82;;;21.48;44.93
37291;BME280;23175;-33.706;151.094;2023-11-21T05:12:06;99868.76;;;21.33;45.33
37291;BME280;23175;-33.706;151.094;2023-11-21T05:14:36;99868.76;;;20.56;47.90
37291;BME280;23175;-33.706;151.094;2023-11-21T05:17:06;99866.48;;;20.60;46.51
37291;BME280;23175;-33.706;151.094;2023-11-21T05:19:36;99867.34;;;21.29;45.95
37291;BME280;23175;-33.706;151.094;2023-11-21T05:22:07;99865.75;;;22.20;45.09
37291;BME280;23175;-33.706;151.094;2023-11-21T05:24:37;99862.10;;;20.59;47.01
37291;BME280;23175;-33.706;151.094;2023-11-21T05:27:07;99854.50;;;22.25;45.22
37291;BME280;23175;-33.706;151.094;2023-11-21T05:29:37;99848.13;;;20.30;47.97
37291;BME280;23175;-33.706;151.094;2023-11-21T05:32:08;99852.58;;;21.25;47.95
37291;BME280;23175;-33.706;151.094;2023-11-21T05:34:38;99849.81;;;21.13;47.58
37291;BME280;23175;-33.706;151.094;2023-11-21T05:37:08;99847.00;;;21.93;46.36
37291;BME280;23175;-33.706;151.094;2023-11-21T05:39:38;99851.23;;;22.39;46.13
37291;BME280;23175;-33.706;151.094;2023-11-21T05:42:09;99857.34;;;21.74;47.00
37291;BME280;23175;-33.706;151.094;2023-11-21T05:44:42;99853.81;;;20.44;48.16
37291;BME280;23175;-33.706;151.094;2023-11-21T05:47:12;99845.10;;;21.36;47.17
37291;BME280;23175;-33.706;151.094;2023-11-21T05:49:42;99842.27;;;19.99;49.31
37291;BME280;23175;-33.706;151.094;2023-11-21T05:52:12;99838.03;;;20.93;47.73
37291;BME280;23175;-33.706;151.094;2023-11-21T05:54:44;99834.18;;;19.17;50.51
37291;BME280;23175;-33.706;151.094;2023-11-21T05:57:14;99827.04;;;21.19;47.14
37291;BME280;23175;-33.706;151.094;2023-11-21T05:59:45;99824.97;;;20.61;48.36
37291;BME280;23175;-33.706;151.094;2023-11-21T06:02:15;99825.67;;;19.56;49.52
37291;BME280;23175;-33.706;151.094;2023-11-21T06:04:45;99825.64;;;19.66;49.23
37291;BME280;23175;-33.706;151.094;2023-11-21T06:07:16;99823.70;;;21.12;47.34
37291;BME280;23175;-33.706;151.094;2023-11-21T06:09:46;99824.97;;;19.28;50.52
37291;BME280;23175;-33.706;151.094;2023-11-21T06:12:16;99820.92;;;20.15;48.61
37291;BME280;23175;-33.706;151.094;2023-11-21T06:14:46;99819.88;;;21.01;47.39
37291;BME280;23175;-33.706;151.094;2023-11-21T06:17:17;99818.22;;;20.63;48.05
37291;BME280;23175;-33.706;151.094;2023-11-21T06:19:48;99822.26;;;20.21;49.01
37291;BME280;23175;-33.706;151.094;2023-11-21T06:22:18;99824.88;;;19.69;50.17
37291;BME280;23175;-33.706;151.094;2023-11-21T06:24:48;99821.41;;;20.07;49.38
37291;BME280;23175;-33.706;151.094;2023-11-21T06:27:18;99814.16;;;20.35;49.33
37291;BME280;23175;-33.706;151.094;2023-11-21T06:29:49;99817.40;;;21.19;48.54
37291;BME280;23175;-33.706;151.094;2023-11-21T06:32:19;99820.51;;;19.17;50.40
37291;BME280;23175;-33.706;151.094;2023-11-21T06:34:49;99817.45;;;21.19;47.61
37291;BME280;23175;-33.706;151.094;2023-11-21T06:37:19;99816.94;;;18.98;50.28
37291;BME280;23175;-33.706;151.094;2023-11-21T06:39:49;99817.97;;;20.79;47.46
37291;BME280;23175;-33.706;151.094;2023-11-21T06:42:20;99821.94;;;20.96;46.70
37291;BME280;23175;-33.706;151.094;2023-11-21T06:44:50;99829.71;;;19.81;48.50
37291;BME280;23175;-33.706;151.094;2023-11-21T06:47:20;99826.62;;;19.82;48.61
37291;BME280;23175;-33.706;151.094;2023-11-21T06:49:51;99827.83;;;18.36;50.00
37291;BME280;23175;-33.706;151.094;2023-11-21T06:52:21;99830.27;;;18.29;50.58
37291;BME280;23175;-33.706;151.094;2023-11-21T06:54:51;99825.40;;;19.46;49.81
37291;BME280;23175;-33.706;151.094;2023-11-21T06:57:23;99829.82;;;19.93;48.95
37291;BME280;23175;-33.706;151.094;2023-11-21T06:59:57;99833.62;;;18.86;50.92
37291;BME280;23175;-33.706;151.094;2023-11-21T07:02:27;99837.92;;;19.29;49.75
37291;BME280;23175;-33.706;151.094;2023-11-21T07:04:57;99851.68;;;19.13;50.13
37291;BME280;23175;-33.706;151.094;2023-11-21T07:07:28;99862.57;;;18.78;50.28
37291;BME280;23175;-33.706;151.094;2023-11-21T07:09:58;99866.34;;;19.58;48.34
37291;BME280;23175;-33.706;151.094;2023-11-21T07:12:29;99873.37;;;18.07;50.83
37291;BME280;23175;-33.706;151.094;2023-11-21T07:14:59;99873.40;;;18.69;50.30
37291;BME280;23175;-33.706;151.094;2023-11-21T07:17:30;99878.37;;;18.16;51.68
37291;BME280;23175;-33.706;151.094;2023-11-21T07:20:00;99874.22;;;20.25;48.35
37291;BME280;23175;-33.706;151.094;2023-11-21T07:22:30;99881.89;;;19.41;49.95
37291;BME280;23175;-33.706;151.094;2023-11-21T07:25:01;99898.86;;;18.49;51.04
37291;BME280;23175;-33.706;151.094;2023-11-21T07:27:31;99906.95;;;19.33;50.17
37291;BME280;23175;-33.706;151.094;2023-11-21T07:30:02;99914.67;;;18.47;52.34
37291;BME280;23175;-33.706;151.094;2023-11-21T07:32:32;99920.41;;;19.04;50.39
37291;BME280;23175;-33.706;151.094;2023-11-21T07:35:02;99925.13;;;16.81;54.05
37291;BME280;23175;-33.706;151.094;2023-11-21T07:37:32;99936.52;;;19.31;49.51
37291;BME280;23175;-33.706;151.094;2023-11-21T07:40:03;99950.12;;;19.66;49.67
37291;BME280;23175;-33.706;151.094;2023-11-21T07:42:33;99957.56;;;18.10;50.83
37291;BME280;23175;-33.706;151.094;2023-11-21T07:45:04;99965.48;;;19.93;48.60
37291;BME280;23175;-33.706;151.094;2023-11-21T07:47:34;99974.67;;;18.42;51.32
37291;BME280;23175;-33.706;151.094;2023-11-21T07:50:05;99975.98;;;21.45;46.29
37291;BME280;23175;-33.706;151.094;2023-11-21T07:52:35;99980.52;;;18.71;50.30
37291;BME280;23175;-33.706;151.094;2023-11-21T07:55:06;99978.12;;;20.83;47.60
37291;BME280;23175;-33.706;151.094;2023-11-21T07:57:36;99981.03;;;20.56;48.31
37291;BME280;23175;-33.706;151.094;2023-11-21T08:00:14;99990.38;;;21.33;47.08
37291;BME280;23175;-33.706;151.094;2023-11-21T08:02:44;99998.48;;;21.60;46.01
37291;BME280;23175;-33.706;151.094;2023-11-21T08:05:14;100005.48;;;21.73;45.23
37291;BME280;23175;-33.706;151.094;2023-11-21T08:07:44;100009.67;;;23.10;43.39
37291;BME280;23175;-33.706;151.094;2023-11-21T08:10:15;100012.47;;;20.35;47.33
37291;BME280;23175;-33.706;151.094;2023-11-21T08:12:45;100024.30;;;22.08;44.94
37291;BME280;23175;-33.706;151.094;2023-11-21T08:15:15;100036.59;;;22.75;43.95
37291;BME280;23175;-33.706;151.094;2023-11-21T08:17:46;100041.33;;;21.25;45.66
37291;BME280;23175;-33.706;151.094;2023-11-21T08:20:16;100037.57;;;21.00;46.80
37291;BME280;23175;-33.706;151.094;2023-11-21T08:22:48;100035.62;;;18.46;50.46
37291;BME280;23175;-33.706;151.094;2023-11-21T08:25:18;100037.68;;;20.68;47.69
37291;BME280;23175;-33.706;151.094;2023-11-21T08:27:47;100040.07;;;21.12;46.93
37291;BME280;23175;-33.706;151.094;2023-11-21T08:30:18;100041.12;;;22.80;43.86
37291;BME280;23175;-33.706;151.094;2023-11-21T08:32:48;100048.39;;;20.42;47.10
37291;BME280;23175;-33.706;151.094;2023-11-21T08:35:19;100057.25;;;20.27;48.06
37291;BME280;23175;-33.706;151.094;2023-11-21T08:37:49;100070.50;;;20.32;48.91
37291;BME280;23175;-33.706;151.094;2023-11-21T08:40:20;100069.92;;;16.98;54.29
37291;BME280;23175;-33.706;151.094;2023-11-21T08:42:50;100068.04;;;20.84;48.46
37291;BME280;23175;-33.706;151.094;2023-11-21T08:45:21;100065.31;;;21.44;47.06
37291;BME280;23175;-33.706;151.094;2023-11-21T08:47:52;100062.35;;;19.88;50.18
37291;BME280;23175;-33.706;151.094;2023-11-21T08:50:22;100062.41;;;18.04;53.00
37291;BME280;23175;-33.706;151.094;2023-11-21T08:52:52;100065.55;;;19.16;51.09
37291;BME280;23175;-33.706;151.094;2023-11-21T08:55:23;100072.62;;;19.88;51.61
37291;BME280;23175;-33.706;151.094;2023-11-21T08:57:53;100072.47;;;18.24;53.74
37291;BME280;23175;-33.706;151.094;2023-11-21T09:00:23;100079.07;;;18.12;55.24
37291;BME280;23175;-33.706;151.094;2023-11-21T09:02:53;100087.57;;;17.33;56.52
37291;BME280;23175;-33.706;151.094;2023-11-21T09:05:23;100103.95;;;19.71;51.73
37291;BME280;23175;-33.706;151.094;2023-11-21T09:07:53;100107.33;;;19.68;51.30
37291;BME280;23175;-33.706;151.094;2023-11-21T09:10:23;100108.07;;;21.80;46.82
37291;BME280;23175;-33.706;151.094;2023-11-21T09:12:54;100107.80;;;19.53;51.23
37291;BME280;23175;-33.706;151.094;2023-11-21T09:15:24;100107.89;;;18.63;52.43
37291;BME280;23175;-33.706;151.094;2023-11-21T09:17:55;100108.00;;;19.34;51.85
37291;BME280;23175;-33.706;151.094;2023-11-21T09:20:25;100107.49;;;21.95;46.90
37291;BME280;23175;-33.706;151.094;2023-11-21T09:22:55;100115.69;;;20.38;49.76
37291;BME280;23175;-33.706;151.094;2023-11-21T09:25:25;100116.20;;;20.62;49.32
37291;BME280;23175;-33.706;151.094;2023-11-21T09:27:56;100115.02;;;22.22;46.37
37291;BME280;23175;-33.706;151.094;2023-11-21T09:30:27;100120.27;;;17.56;53.24
37291;BME280;23175;-33.706;151.094;2023-11-21T09:32:57;100121.40;;;20.79;47.56
37291;BME280;23175;-33.706;151.094;2023-11-21T09:35:27;100122.29;;;20.36;48.62
37291;BME280;23175;-33.706;151.094;2023-11-21T09:37:58;100126.64;;;20.62;47.75
37291;BME280;23175;-33.706;151.094;2023-11-21T09:40:28;100140.78;;;18.68;50.79
37291;BME280;23175;-33.706;151.094;2023-11-21T09:42:59;100150.21;;;20.48;48.42
37291;BME280;23175;-33.706;151.094;2023-11-21T09:45:32;100157.36;;;20.98;48.42
37291;BME280;23175;-33.706;151.094;2023-11-21T09:48:04;100159.30;;;19.58;49.31
37291;BME280;23175;-33.706;151.094;2023-11-21T09:50:35;100152.31;;;21.94;45.95
37291;BME280;23175;-33.706;151.094;2023-11-21T09:53:12;100153.67;;;22.61;44.43
37291;BME280;23175;-33.706;151.094;2023-11-21T09:55:45;100160.81;;;22.09;45.83
37291;BME280;23175;-33.706;151.094;2023-11-21T09:58:16;100162.74;;;21.91;44.95
37291;BME280;23175;-33.706;151.094;2023-11-21T10:00:48;100168.02;;;19.24;49.30
37291;BME280;23175;-33.706;151.094;2023-11-21T10:03:19;100169.37;;;19.85;48.68
37291;BME280;23175;-33.706;151.094;2023-11-21T10:05:51;100168.12;;;21.59;46.19
37291;BME280;23175;-33.706;151.094;2023-11-21T10:08:24;100172.60;;;21.30;47.16
37291;BME280;23175;-33.706;151.094;2023-11-21T10:10:56;100178.98;;;21.76;45.41
37291;BME280;23175;-33.706;151.094;2023-11-21T10:13:28;100182.01;;;21.51;46.72
37291;BME280;23175;-33.706;151.094;2023-11-21T10:15:59;100185.53;;;17.15;53.24
37291;BME280;23175;-33.706;151.094;2023-11-21T10:18:30;100185.55;;;20.04;49.07
37291;BME280;23175;-33.706;151.094;2023-11-21T10:21:02;100183.62;;;20.02;49.31
37291;BME280;23175;-33.706;151.094;2023-11-21T10:23:32;100189.80;;;20.47;48.25
37291;BME280;23175;-33.706;151.094;2023-11-21T10:26:02;100198.83;;;22.41;45.67
37291;BME280;23175;-33.706;151.094;2023-11-21T10:28:36;100213.42;;;21.44;46.97
37291;BME280;23175;-33.706;151.094;2023-11-21T10:31:08;100218.28;;;22.49;45.70
37291;BME280;23175;-33.706;151.094;2023-11-21T10:33:39;100220.15;;;22.08;45.12
37291;BME280;23175;-33.706;151.094;2023-11-21T10:36:11;100217.11;;;16.85;55.15
37291;BME280;23175;-33.706;151.094;2023-11-21T10:38:44;100210.71;;;18.39;52.71
37291;BME280;23175;-33.706;151.094;2023-11-21T10:41:14;100218.29;;;21.40;47.58
37291;BME280;23175;-33.706;151.094;2023-11-21T10:43:45;100223.01;;;19.14;51.72
37291;BME280;23175;-33.706;151.094;2023-11-21T10:46:16;100217.79;;;18.63;51.20
37291;BME280;23175;-33.706;151.094;2023-11-21T10:48:50;100217.75;;;19.44;50.72
37291;BME280;23175;-33.706;151.094;2023-11-21T10:51:22;100221.86;;;21.56;46.83
37291;BME280;23175;-33.706;151.094;2023-11-21T10:53:53;100228.98;;;19.97;49.90
37291;BME280;23175;-33.706;151.094;2023-11-21T10:56:25;100237.13;;;19.56;50.88
37291;BME280;23175;-33.706;151.094;2023-11-21T10:58:56;100243.75;;;21.02;47.87
37291;BME280;23175;-33.706;151.094;2023-11-21T11:01:27;100244.51;;;22.03;45.77
37291;BME280;23175;-33.706;151.094;2023-11-21T11:03:59;100238.46;;;21.14;47.11
37291;BME280;23175;-33.706;151.094;2023-11-21T11:06:30;100234.68;;;18.26;52.02
37291;BME280;23175;-33.706;151.094;2023-11-21T11:09:01;100234.69;;;21.16;47.17
37291;BME280;23175;-33.706;151.094;2023-11-21T11:11:31;100231.49;;;18.53;51.50
37291;BME280;23175;-33.706;151.094;2023-11-21T11:14:02;100233.71;;;18.54;52.41
37291;BME280;23175;-33.706;151.094;2023-11-21T11:16:32;100234.25;;;18.89;50.97
37291;BME280;23175;-33.706;151.094;2023-11-21T11:19:02;100235.61;;;17.55;54.03
37291;BME280;23175;-33.706;151.094;2023-11-21T11:21:43;100232.33;;;21.05;47.96
37291;BME280;23175;-33.706;151.094;2023-11-21T11:24:41;100233.01;;;19.08;51.59
37291;BME280;23175;-33.706;151.094;2023-11-21T11:27:23;100236.47;;;18.38;52.62
37291;BME280;23175;-33.706;151.094;2023-11-21T11:30:06;100239.55;;;17.80;54.28
37291;BME280;23175;-33.706;151.094;2023-11-21T11:32:48;100233.00;;;20.14;49.62
37291;BME280;23175;-33.706;151.094;2023-11-21T11:35:25;100232.99;;;19.04;51.72
37291;BME280;23175;-33.706;151.094;2023-11-21T11:37:58;100240.13;;;20.15;50.07
37291;BME280;23175;-33.706;151.094;2023-11-21T11:40:40;100240.34;;;19.59;50.31
37291;BME280;23175;-33.706;151.094;2023-11-21T11:43:11;100237.04;;;19.26;51.57
37291;BME280;23175;-33.706;151.094;2023-11-21T11:45:40;100232.53;;;20.81;48.53
37291;BME280;23175;-33.706;151.094;2023-11-21T11:48:13;100225.49;;;20.32;49.03
37291;BME280;23175;-33.706;151.094;2023-11-21T11:51:02;100218.87;;;17.82;53.98
37291;BME280;23175;-33.706;151.094;2023-11-21T11:53:40;100217.60;;;20.10;49.77
37291;BME280;23175;-33.706;151.094;2023-11-21T11:56:31;100216.82;;;20.72;47.87
37291;BME280;23175;-33.706;151.094;2023-11-21T11:59:02;100218.57;;;19.27;50.66
37291;BME280;23175;-33.706;151.094;2023-11-21T12:01:34;100218.02;;;18.36;52.94
37291;BME280;23175;-33.706;151.094;2023-11-21T12:04:42;100225.00;;;17.03;55.50
37291;BME280;23175;-33.706;151.094;2023-11-21T12:07:15;100225.53;;;15.15;59.92
37291;BME280;23175;-33.706;151.094;2023-11-21T12:09:45;100220.45;;;17.38;55.09
37291;BME280;23175;-33.706;151.094;2023-11-21T12:12:17;100220.98;;;18.01;54.01
37291;BME280;23175;-33.706;151.094;2023-11-21T12:14:48;100222.06;;;15.57;59.28
37291;BME280;23175;-33.706;151.094;2023-11-21T12:17:18;100214.91;;;18.24;53.21
37291;BME280;23175;-33.706;151.094;2023-11-21T12:19:49;100214.13;;;17.01;56.62
37291;BME280;23175;-33.706;151.094;2023-11-21T12:22:20;100207.60;;;16.97;56.10
37291;BME280;23175;-33.706;151.094;2023-11-21T12:24:51;100196.85;;;19.79;51.36
37291;BME280;23175;-33.706;151.094;2023-11-21T12:27:23;100196.67;;;20.49;49.36
37291;BME280;23175;-33.706;151.094;2023-11-21T12:29:54;100194.89;;;20.13;49.82
37291;BME280;23175;-33.706;151.094;2023-11-21T12:32:24;100189.03;;;19.79;49.17
37291;BME280;23175;-33.706;151.094;2023-11-21T12:34:54;100190.47;;;21.32;46.65
37291;BME280;23175;-33.706;151.094;2023-11-21T12:37:25;100196.51;;;21.21;46.87
37291;BME280;23175;-33.706;151.094;2023-11-21T12:39:57;100188.79;;;22.31;44.95
37291;BME280;23175;-33.706;151.094;2023-11-21T12:42:30;100187.01;;;21.83;45.00